Kristian Aasvold

Human Powered Health

Kristian Aasvold is a cyclist from Norway (born May 30th 1995), who currently rides for Human Powered Health (UCI ProTeam).

Race program

Information

2022 2021 2020 2019 2018 2017 2016 2015 2014 2013 2012

Human Powered Health (ProTeam) UCI Ranking: 1785 (15pts) UCI: Race days: 49 UCI: Distance: 8.177km
Date Pos GC Race UCI
11.09 Tour of Britain | 2.Pro 2022-09-11 Show more
11.09 26 Tour of Britain | Overall 2022-09-115
06.02 Volta Comunitat Valenciana | 2.Pro 2022-02-06 Show more
06.02 46 Volta Comunitat Valenciana | Overall 2022-02-06
27.02 Gran Camiño | 2.1 2022-02-27 Show more
27.02 75 Gran Camiño | Overall 2022-02-27
20.03 38 Per Sempre Alfredo | 1.1 2022-03-20Show more
02.04 106 GP Miguel Indurain | 1.Pro 2022-04-02Show more
18.09 56 Gooikse Pijl | 1.1 2022-09-18Show more
16.09 56 Kamp. van Vlaanderen | 1.1 2022-09-16Show more
14.08 Arctic Race of Norway | 2.Pro 2022-08-14 Show more
14.08 19 Arctic Race of Norway | Overall 2022-08-145
31.07 36 Circuito de Getxo | 1.1 2022-07-31Show more
25.07 76 Villafranca de Ordizia | 1.1 2022-07-25Show more
19.06 Tour de Suisse | 2.UWT 2022-06-19 Show more
19.06 54 Tour de Suisse | Overall 2022-06-195
26.06 53 Norway RR | CN 2022-06-26Show more
10.06 DNF GP Kanton Aargau | 1.1 2022-06-10Show more
29.05 Tour of Norway | 2.Pro 2022-05-29 Show more
29.05 DNF Tour of Norway | Overall 2022-05-29
01.05 Tour of Hellas | 2.1 2022-05-01 Show more
01.05 34 Tour of Hellas | Overall 2022-05-01
15.04 Giro di Sicilia | 2.1 2022-04-15 Show more
15.04 75 Giro di Sicilia | Overall 2022-04-15
14.08 28 Arctic Race of Norway | Points 2022-08-14
11.09 36 Tour of Britain | Points 2022-09-11
08.09 82 26 Tour of Britain | 5th stage 2022-09-08
07.09 20 19 Tour of Britain | 4th stage 2022-09-07
06.09 36 19 Tour of Britain | 3rd stage 2022-09-06
05.09 13 15 Tour of Britain | 2nd stage 2022-09-05
04.09 35 35 Tour of Britain | 1st stage 2022-09-04
14.08 24 19 Arctic Race of Norway | 4th stage 2022-08-14
13.08 29 20 Arctic Race of Norway | 3rd stage 2022-08-13
12.08 36 7 Arctic Race of Norway | 2nd stage 2022-08-12
11.08 16 4 Arctic Race of Norway | 1st stage 2022-08-11
19.06 32 54 Tour de Suisse | 8th stage 2022-06-19
18.06 47 57 Tour de Suisse | 7th stage 2022-06-18
17.06 50 62 Tour de Suisse | 6th stage 2022-06-17
16.06 75 91 Tour de Suisse | 5th stage 2022-06-16
15.06 71 94 Tour de Suisse | 4th stage 2022-06-15
14.06 24 110 Tour de Suisse | 3rd stage 2022-06-14
13.06 125 125 Tour de Suisse | 2nd stage 2022-06-13
12.06 118 118 Tour de Suisse | 1st stage 2022-06-12
29.05 DNF Tour of Norway | 6th stage 2022-05-29
28.05 67 23 Tour of Norway | 5th stage 2022-05-28
27.05 49 22 Tour of Norway | 4th stage 2022-05-27
26.05 25 24 Tour of Norway | 3rd stage 2022-05-26
25.05 39 28 Tour of Norway | 2nd stage 2022-05-25
24.05 12 12 Tour of Norway | 1st stage 2022-05-24
01.05 62 34 Tour of Hellas | 5th stage 2022-05-01
30.04 15 21 Tour of Hellas | 4th stage 2022-04-30
29.04 42 21 Tour of Hellas | 3rd stage 2022-04-29
28.04 33 17 Tour of Hellas | 2nd stage 2022-04-28
27.04 18 18 Tour of Hellas | 1st stage 2022-04-27
15.04 83 75 Giro di Sicilia | 4th stage 2022-04-15
14.04 57 64 Giro di Sicilia | 3rd stage 2022-04-14
13.04 72 71 Giro di Sicilia | 2nd stage 2022-04-13
12.04 74 74 Giro di Sicilia | 1st stage 2022-04-12
27.02 46 75 Gran Camiño | 4th stage 2022-02-27
26.02 94 74 Gran Camiño | 3rd stage 2022-02-26
25.02 45 45 Gran Camiño | 2nd stage 2022-02-25
24.02 23 28 Gran Camiño | 1st stage 2022-02-24
06.02 108 46 Volta Comunitat Valenciana | 5th stage 2022-02-06
05.02 47 47 Volta Comunitat Valenciana | 4th stage 2022-02-05
04.02 56 53 Volta Comunitat Valenciana | 3rd stage 2022-02-04
03.02 114 68 Volta Comunitat Valenciana | 2nd stage 2022-02-03
02.02 72 73 Volta Comunitat Valenciana | 1st stage 2022-02-02